Accueil
METAR-TAF:

METAR-TAF

Aéroports :

Ponce, Porto Rico, États-Unis

latitude: 18-01N, longitude: 066-34W, altitude: 8 m

METAR: absent

Heure: 09:25 (13:25 UTC)

Prévision

Le bulletin a été fait il y a 2 heures et 5 minutes, à 11:20 UTC
Prévision valable du 29 à 12 UTC au 30 à 12 UTC
Vent 3 kt de direction variable
Visibilité: 10 km
Quelques nuages à une hauteur de 4000 ft
Nuages épars à une hauteur de 6000 ft
A partir de 29 à 1400 UTC
Vent 8 kt de sud/sud-est
Visibilité: 10 km
Quelques nuages à une hauteur de 3500 ft
Quelques nuages à une hauteur de 6000 ft
A partir de 29 à 2300 UTC
Vent 3 kt de direction variable
Visibilité: 10 km
Quelques nuages à une hauteur de 4500 ft

TAF: TJPS 291120Z 2912/3012 VRB03KT P6SM FEW040 SCT060 FM291400 16008KT P6SM FEW035 FEW060 FM292300 VRB03KT P6SM FEW045

Observations et prévisions météorologiques de plus de 4000 aéroports (messages METAR et TAF).

Les stations disponibles sont représentées par des disques jaunes et rouges sur la carte.

Passer la souris dessus pour voir le nom de la station.

Cliquer dessus pour voir les observations et prévisions météorologiques.

Pour changer de carte: cliquez sur les boutons verts avec une croix noire pour zoomer, sur le bouton vert avec un tiret pour effectuer un zoom arrière, ou sur les flèches vertes pour les cartes adjacentes.


METAR-TAF: